Time;durP1;ratioP1;P1;durP2;ratioP2;P2;SDS_P1;SDS_P2;PMS_P1;PMS_P2;Temp;Humidity;BMP_temperature;BMP_pressure;BME280_temperature;BME280_humidity;BME280_pressure;Samples;Min_cycle;Max_cycle;Signal;HPM_P1;HPM_P2
2020/12/01 00:01:20;;;;;;;24.23;13.25;;;5.70;99.90;;;;;;5072787;28;20755;-77
2020/12/01 00:03:46;;;;;;;23.80;13.67;;;5.50;99.90;;;;;;5073655;28;20258;-77
2020/12/01 00:06:12;;;;;;;21.40;13.77;;;5.50;99.90;;;;;;5073628;28;20761;-76
2020/12/01 00:08:39;;;;;;;22.13;13.93;;;5.50;99.90;;;;;;5073742;28;20188;-77
2020/12/01 00:11:06;;;;;;;22.73;14.30;;;5.40;99.90;;;;;;5073770;28;20907;-77
2020/12/01 00:13:33;;;;;;;20.42;13.02;;;5.50;99.90;;;;;;5073412;28;20175;-77
2020/12/01 00:16:04;;;;;;;20.45;12.98;;;5.50;99.90;;;;;;5055128;28;20195;-77
2020/12/01 00:18:33;;;;;;;21.73;12.10;;;5.60;99.90;;;;;;5073690;28;20168;-77
2020/12/01 00:20:59;;;;;;;20.77;13.40;;;5.60;99.90;;;;;;5055407;28;20207;-77
2020/12/01 00:23:25;;;;;;;19.98;13.43;;;5.80;99.90;;;;;;5055667;28;20422;-77
2020/12/01 00:25:52;;;;;;;22.58;13.95;;;5.70;99.90;;;;;;5071076;28;20207;-77
2020/12/01 00:28:18;;;;;;;20.27;12.75;;;5.60;99.90;;;;;;5055542;28;20184;-77
2020/12/01 00:30:47;;;;;;;22.20;13.98;;;5.90;99.90;;;;;;5073133;28;20237;-77
2020/12/01 00:35:49;;;;;;;23.08;14.00;;;5.70;99.90;;;;;;5056949;28;20239;-75
2020/12/01 00:38:23;;;;;;;21.98;13.35;;;5.60;99.90;;;;;;5072403;28;20260;-75
2020/12/01 00:40:51;;;;;;;27.83;15.88;;;5.60;99.90;;;;;;5071360;28;20192;-75
2020/12/01 00:43:18;;;;;;;24.77;13.85;;;5.60;99.90;;;;;;5087733;28;20175;-74
2020/12/01 00:45:49;;;;;;;20.63;13.82;;;5.60;99.90;;;;;;5071808;28;20204;-75
2020/12/01 00:48:20;;;;;;;21.48;14.73;;;5.60;99.90;;;;;;5087916;28;20282;-75
2020/12/01 00:50:48;;;;;;;19.40;14.20;;;5.60;99.90;;;;;;5071143;28;20659;-75
2020/12/01 00:53:17;;;;;;;19.00;13.35;;;5.70;99.90;;;;;;5054337;28;20423;-75
2020/12/01 00:55:44;;;;;;;20.65;12.93;;;5.70;99.90;;;;;;5070993;28;20222;-75
2020/12/01 00:58:12;;;;;;;21.70;13.35;;;5.80;99.90;;;;;;5070933;28;20188;-75
2020/12/01 01:00:58;;;;;;;20.42;14.20;;;5.70;99.90;;;;;;5071239;28;20184;-75
2020/12/01 01:03:25;;;;;;;19.58;12.95;;;5.70;99.90;;;;;;5070834;28;20176;-75
2020/12/01 01:05:51;;;;;;;20.15;13.88;;;5.70;99.90;;;;;;5054132;28;20287;-75
2020/12/01 01:08:17;;;;;;;22.33;14.03;;;5.80;99.90;;;;;;5069149;28;20223;-75
2020/12/01 01:10:46;;;;;;;19.25;12.57;;;5.80;99.90;;;;;;5053988;28;20434;-75
2020/12/01 01:13:13;;;;;;;18.50;13.27;;;5.80;99.90;;;;;;5070653;28;20770;-75
2020/12/01 01:15:41;;;;;;;19.88;13.77;;;5.80;99.90;;;;;;5052870;28;20215;-75
2020/12/01 01:18:44;;;;;;;20.40;13.77;;;5.80;99.90;;;;;;5086958;28;20637;-74
2020/12/01 01:21:11;;;;;;;19.00;12.30;;;5.80;99.90;;;;;;5069759;28;20554;-75
2020/12/01 01:23:37;;;;;;;18.33;12.30;;;5.70;99.90;;;;;;5087065;28;20176;-75
2020/12/01 01:26:03;;;;;;;18.58;12.60;;;5.80;99.90;;;;;;5072027;28;20249;-75
2020/12/01 01:28:29;;;;;;;20.73;13.80;;;5.80;99.90;;;;;;5071296;28;20238;-75
2020/12/01 01:30:57;;;;;;;24.92;13.43;;;5.80;99.90;;;;;;5071468;28;20195;-75
2020/12/01 01:33:23;;;;;;;20.75;13.05;;;5.90;99.90;;;;;;5053883;28;20241;-75
2020/12/01 01:35:51;;;;;;;23.05;13.10;;;5.90;99.90;;;;;;5085978;28;20227;-75
2020/12/01 01:38:18;;;;;;;18.80;12.90;;;5.90;99.90;;;;;;5088417;28;20179;-75
2020/12/01 01:40:44;;;;;;;21.60;13.90;;;5.90;99.90;;;;;;5075628;28;20225;-75
2020/12/01 01:43:13;;;;;;;21.83;13.95;;;5.90;99.90;;;;;;5074066;28;20226;-75
2020/12/01 01:45:42;;;;;;;19.83;14.73;;;5.90;99.90;;;;;;5075101;28;20212;-75
2020/12/01 01:48:20;;;;;;;21.65;13.77;;;5.90;99.90;;;;;;5057503;28;20267;-75
2020/12/01 01:51:11;;;;;;;23.33;14.52;;;5.90;99.90;;;;;;5074273;28;20188;-75
2020/12/01 01:53:45;;;;;;;18.30;13.10;;;5.90;99.90;;;;;;5073680;28;20188;-75
2020/12/01 01:56:16;;;;;;;29.33;14.18;;;6.00;99.90;;;;;;5075105;28;20218;-75
2020/12/01 01:58:46;;;;;;;22.55;14.52;;;6.00;99.90;;;;;;5090447;28;20542;-75
2020/12/01 02:01:16;;;;;;;21.17;13.95;;;6.00;99.90;;;;;;5074327;28;20224;-74
2020/12/01 02:03:52;;;;;;;24.60;14.45;;;6.00;99.90;;;;;;5074849;28;20175;-75
2020/12/01 02:06:35;;;;;;;22.13;15.07;;;6.00;99.90;;;;;;5073382;28;20548;-75
2020/12/01 02:09:08;;;;;;;21.35;14.48;;;6.00;99.90;;;;;;5090659;28;20675;-75
2020/12/01 02:11:41;;;;;;;23.33;13.65;;;6.00;99.90;;;;;;5073565;28;20262;-75
2020/12/01 02:14:11;;;;;;;22.63;14.52;;;6.10;99.90;;;;;;5074581;28;20204;-75
2020/12/01 02:16:45;;;;;;;24.23;14.27;;;6.10;99.90;;;;;;5073889;28;20206;-75
2020/12/01 02:19:20;;;;;;;24.92;15.13;;;6.10;99.90;;;;;;5073461;28;20176;-75
2020/12/01 02:21:47;;;;;;;28.92;16.50;;;6.10;99.90;;;;;;5073436;28;20164;-75
2020/12/01 02:24:21;;;;;;;24.02;16.10;;;6.10;99.90;;;;;;5040556;28;20210;-75
2020/12/01 02:26:50;;;;;;;27.70;16.17;;;6.20;99.90;;;;;;5074041;28;20556;-75
2020/12/01 02:29:28;;;;;;;26.02;15.82;;;6.10;99.90;;;;;;5073310;28;20259;-75
2020/12/01 02:31:54;;;;;;;23.77;16.00;;;6.10;99.90;;;;;;5073163;28;20172;-75
2020/12/01 02:34:30;;;;;;;24.48;15.05;;;6.10;99.90;;;;;;5073992;28;20256;-75
2020/12/01 02:37:02;;;;;;;26.60;17.40;;;6.10;99.90;;;;;;5074202;28;20200;-75
2020/12/01 02:39:29;;;;;;;31.70;16.67;;;6.20;99.90;;;;;;5073255;28;20200;-75
2020/12/01 02:42:02;;;;;;;26.90;16.70;;;6.20;99.90;;;;;;5074503;28;20191;-75
2020/12/01 02:44:31;;;;;;;23.92;16.98;;;6.20;99.90;;;;;;5107031;28;20287;-75
2020/12/01 02:47:01;;;;;;;22.80;16.15;;;6.20;99.90;;;;;;5072173;28;20188;-75
2020/12/01 02:49:30;;;;;;;25.92;16.15;;;6.20;99.90;;;;;;5089162;28;20168;-75
2020/12/01 02:51:59;;;;;;;27.00;16.40;;;6.20;99.90;;;;;;5073951;28;20237;-75
2020/12/01 02:54:25;;;;;;;24.45;15.60;;;6.20;99.90;;;;;;5072396;28;20203;-75
2020/12/01 02:56:51;;;;;;;27.27;16.15;;;6.20;99.90;;;;;;5072787;28;20211;-75
2020/12/01 02:59:17;;;;;;;27.63;17.47;;;6.20;99.90;;;;;;5055143;28;20660;-75
2020/12/01 03:01:45;;;;;;;32.05;17.50;;;6.20;99.90;;;;;;5072907;28;20405;-75
2020/12/01 03:04:11;;;;;;;27.13;17.23;;;6.20;99.90;;;;;;5072445;28;20443;-75
2020/12/01 03:06:40;;;;;;;28.33;17.75;;;6.20;99.90;;;;;;5058502;28;20184;-75
2020/12/01 03:09:11;;;;;;;29.45;17.70;;;6.20;99.90;;;;;;5052687;28;20169;-75
2020/12/01 03:11:39;;;;;;;30.70;18.25;;;6.20;99.90;;;;;;5052369;28;20168;-75
2020/12/01 03:14:07;;;;;;;25.75;16.88;;;6.30;99.90;;;;;;5068651;28;20200;-75
2020/12/01 03:16:33;;;;;;;23.63;16.50;;;6.30;99.90;;;;;;5069081;28;20684;-75
2020/12/01 03:18:59;;;;;;;28.45;18.10;;;6.30;99.90;;;;;;5052566;28;20168;-75
2020/12/01 03:21:28;;;;;;;28.33;17.00;;;6.30;99.90;;;;;;5053750;28;20177;-75
2020/12/01 03:23:58;;;;;;;29.90;17.55;;;6.30;99.90;;;;;;5052525;28;20185;-75
2020/12/01 03:26:24;;;;;;;33.20;18.92;;;6.30;99.90;;;;;;5068635;28;20595;-75
2020/12/01 03:28:50;;;;;;;28.33;17.40;;;6.30;99.90;;;;;;5063168;28;20282;-75
2020/12/01 03:31:22;;;;;;;28.00;19.07;;;6.30;99.90;;;;;;5088710;28;20259;-75
2020/12/01 03:33:49;;;;;;;22.88;16.42;;;6.30;99.90;;;;;;5071704;28;20428;-75
2020/12/01 03:36:16;;;;;;;28.52;18.70;;;6.30;99.90;;;;;;5073345;28;20605;-75
2020/12/01 03:38:42;;;;;;;26.10;15.60;;;6.40;99.90;;;;;;5088177;28;20237;-75
2020/12/01 03:41:09;;;;;;;28.05;16.33;;;6.40;99.90;;;;;;5088865;28;20674;-75
2020/12/01 03:43:35;;;;;;;32.95;19.10;;;6.40;99.90;;;;;;5055407;28;20176;-75
2020/12/01 03:46:01;;;;;;;27.98;16.98;;;6.40;99.90;;;;;;5054798;28;20206;-75
2020/12/01 03:48:27;;;;;;;30.13;18.27;;;6.50;99.90;;;;;;5072450;28;20192;-75
2020/12/01 03:50:56;;;;;;;27.75;17.00;;;6.40;99.90;;;;;;5088687;28;20172;-75
2020/12/01 03:53:22;;;;;;;29.20;16.88;;;6.40;99.90;;;;;;5072378;28;20644;-75
2020/12/01 03:55:50;;;;;;;30.48;17.33;;;6.40;99.90;;;;;;5054718;28;20219;-75
2020/12/01 03:58:19;;;;;;;28.67;17.17;;;6.40;99.90;;;;;;5055212;28;20485;-75
2020/12/01 04:00:47;;;;;;;27.95;17.38;;;6.40;99.90;;;;;;5071691;28;20203;-75
2020/12/01 04:03:13;;;;;;;30.30;16.70;;;6.40;99.90;;;;;;5054068;28;20656;-75
2020/12/01 04:05:41;;;;;;;24.58;16.77;;;6.40;99.90;;;;;;5071405;28;20442;-75
2020/12/01 04:08:13;;;;;;;27.75;16.80;;;6.40;99.90;;;;;;5072338;28;20302;-75
2020/12/01 04:10:39;;;;;;;29.10;18.67;;;6.40;99.90;;;;;;5071697;28;20219;-75
2020/12/01 04:13:05;;;;;;;25.37;17.53;;;6.40;99.90;;;;;;5072490;28;20211;-75
2020/12/01 04:15:31;;;;;;;28.30;17.52;;;6.40;99.90;;;;;;5071939;28;20474;-75
2020/12/01 04:18:00;;;;;;;26.00;17.27;;;6.40;99.90;;;;;;5054494;28;20186;-75
2020/12/01 04:20:26;;;;;;;27.27;18.23;;;6.40;99.90;;;;;;5054376;28;20174;-75
2020/12/01 04:22:55;;;;;;;26.20;17.20;;;6.40;99.90;;;;;;5071447;28;20239;-75
2020/12/01 04:25:23;;;;;;;26.02;18.52;;;6.40;99.90;;;;;;5087060;28;20635;-75
2020/12/01 04:27:56;;;;;;;30.48;17.52;;;6.40;99.90;;;;;;5071307;28;20513;-75
2020/12/01 04:30:25;;;;;;;28.40;19.00;;;6.40;99.90;;;;;;5087318;28;20230;-75
2020/12/01 04:32:55;;;;;;;28.33;17.63;;;6.40;99.90;;;;;;5072190;28;20168;-75
2020/12/01 04:35:25;;;;;;;25.35;18.33;;;6.40;99.90;;;;;;5067256;28;20232;-75
2020/12/01 04:37:55;;;;;;;26.02;17.67;;;6.40;99.90;;;;;;5051111;28;20169;-75
2020/12/01 04:40:25;;;;;;;24.85;16.45;;;6.40;99.90;;;;;;5052016;28;20211;-75
2020/12/01 04:43:02;;;;;;;27.00;17.40;;;6.40;99.90;;;;;;5067412;28;20183;-75
2020/12/01 04:45:31;;;;;;;28.15;17.75;;;6.40;99.90;;;;;;5050632;28;20606;-75
2020/12/01 04:48:12;;;;;;;28.02;17.92;;;6.40;99.90;;;;;;5050653;28;20243;-75
2020/12/01 04:50:46;;;;;;;26.50;16.00;;;6.40;99.90;;;;;;5050839;28;20678;-75
2020/12/01 04:53:29;;;;;;;26.45;18.42;;;6.40;99.90;;;;;;5067368;28;20179;-75
2020/12/01 04:56:27;;;;;;;27.77;17.63;;;6.40;99.90;;;;;;5034044;28;20282;-75
2020/12/01 04:59:03;;;;;;;28.60;16.77;;;6.40;99.90;;;;;;5051302;28;20191;-75
2020/12/01 05:01:37;;;;;;;29.95;18.00;;;6.30;99.90;;;;;;5050785;28;20204;-75
2020/12/01 05:04:08;;;;;;;26.50;17.48;;;6.30;99.90;;;;;;5051936;28;20395;-75
2020/12/01 05:09:38;;;;;;;27.45;16.80;;;6.40;99.90;;;;;;5052184;28;20504;-75
2020/12/01 05:12:11;;;;;;;25.67;17.00;;;6.40;99.90;;;;;;5068812;28;20183;-75
2020/12/01 05:15:13;;;;;;;30.25;17.65;;;6.30;99.90;;;;;;5055342;28;20204;-75
2020/12/01 05:18:04;;;;;;;24.33;16.40;;;6.30;99.90;;;;;;5071488;28;20219;-75
2020/12/01 05:20:30;;;;;;;26.08;17.00;;;6.30;99.90;;;;;;5054935;28;20181;-74
2020/12/01 05:23:03;;;;;;;26.98;16.92;;;6.30;99.90;;;;;;5070938;28;20219;-75
2020/12/01 05:25:33;;;;;;;26.20;16.48;;;6.40;99.90;;;;;;5053531;28;20290;-77
2020/12/01 05:28:11;;;;;;;26.42;16.90;;;6.40;99.90;;;;;;5052144;28;20188;-75
2020/12/01 05:30:39;;;;;;;28.80;17.92;;;6.40;99.90;;;;;;5050250;28;20288;-75
2020/12/01 05:33:29;;;;;;;29.48;18.05;;;6.50;99.90;;;;;;5036503;28;20177;-76
2020/12/01 05:36:09;;;;;;;31.83;18.00;;;6.40;99.90;;;;;;5051836;28;20603;-76
2020/12/01 05:38:35;;;;;;;24.90;17.67;;;6.50;99.90;;;;;;5052184;28;20564;-76
2020/12/01 05:41:36;;;;;;;30.43;16.90;;;6.40;99.90;;;;;;5051730;28;20177;-76
2020/12/01 05:44:23;;;;;;;26.77;16.90;;;6.50;99.90;;;;;;5036470;28;20514;-76
2020/12/01 05:46:56;;;;;;;25.60;16.42;;;6.40;99.90;;;;;;5051702;28;20250;-76
2020/12/01 05:49:37;;;;;;;27.50;18.73;;;6.40;99.90;;;;;;5035253;28;20196;-76
2020/12/01 05:52:26;;;;;;;29.08;17.02;;;6.40;99.90;;;;;;5051524;28;20173;-76
2020/12/01 05:55:18;;;;;;;23.58;16.55;;;6.40;99.90;;;;;;5035083;28;20201;-75
2020/12/01 05:58:02;;;;;;;28.20;17.80;;;6.40;99.90;;;;;;5051797;28;20185;-76
2020/12/01 06:00:37;;;;;;;32.45;18.42;;;6.40;99.90;;;;;;5036268;28;20167;-76
2020/12/01 06:03:23;;;;;;;22.65;15.57;;;6.40;99.90;;;;;;5051701;28;20468;-76
2020/12/01 06:05:53;;;;;;;23.92;16.00;;;6.50;99.90;;;;;;5054536;28;20208;-76
2020/12/01 06:08:31;;;;;;;29.65;17.80;;;6.50;99.90;;;;;;5038298;28;20261;-76
2020/12/01 06:11:12;;;;;;;24.67;16.30;;;6.50;99.90;;;;;;5054498;28;20185;-76
2020/12/01 06:13:44;;;;;;;22.90;16.23;;;6.40;99.90;;;;;;5070937;28;20164;-76
2020/12/01 06:16:10;;;;;;;22.77;15.60;;;6.50;99.90;;;;;;5071124;28;20227;-76
2020/12/01 06:19:20;;;;;;;24.55;16.25;;;6.50;99.90;;;;;;5055709;28;20165;-76
2020/12/01 06:22:05;;;;;;;24.88;15.95;;;6.50;99.90;;;;;;5051891;28;20530;-76
2020/12/01 06:25:02;;;;;;;25.88;15.90;;;6.50;99.90;;;;;;5053400;28;20196;-76
2020/12/01 06:27:41;;;;;;;25.17;15.63;;;6.50;99.90;;;;;;5054094;28;20687;-76
2020/12/01 06:30:49;;;;;;;28.85;16.95;;;6.50;99.90;;;;;;5055406;28;20196;-77
2020/12/01 06:33:54;;;;;;;24.40;15.40;;;6.50;99.90;;;;;;5022258;28;20678;-75
2020/12/01 06:36:55;;;;;;;28.13;15.02;;;6.50;99.90;;;;;;5052801;28;20216;-75
2020/12/01 06:39:53;;;;;;;26.95;16.20;;;6.50;99.90;;;;;;5069250;28;20204;-75
2020/12/01 06:42:23;;;;;;;25.05;14.90;;;6.50;99.90;;;;;;5036511;28;20633;-75
2020/12/01 06:45:00;;;;;;;25.80;15.70;;;6.50;99.90;;;;;;5054425;28;20577;-75
2020/12/01 06:47:31;;;;;;;23.20;14.90;;;6.60;99.90;;;;;;5053411;28;20624;-75
2020/12/01 06:50:06;;;;;;;22.75;14.50;;;6.60;99.90;;;;;;5054172;28;20240;-75
2020/12/01 06:52:36;;;;;;;26.63;14.15;;;6.60;99.90;;;;;;5053259;28;20478;-74
2020/12/01 06:55:02;;;;;;;20.60;14.77;;;6.60;99.90;;;;;;5052256;28;20200;-75
2020/12/01 06:57:36;;;;;;;26.23;14.25;;;6.60;99.90;;;;;;5035974;28;20200;-75
2020/12/01 07:00:07;;;;;;;26.40;14.20;;;6.60;99.90;;;;;;5052444;28;20172;-75
2020/12/01 07:02:37;;;;;;;27.70;14.10;;;6.60;99.90;;;;;;5052613;28;20193;-74
2020/12/01 07:05:08;;;;;;;29.50;13.20;;;6.70;99.90;;;;;;5068395;28;20200;-75
2020/12/01 07:07:37;;;;;;;23.77;15.00;;;6.70;99.90;;;;;;5053568;28;20169;-75
2020/12/01 07:10:32;;;;;;;22.75;12.98;;;6.70;99.90;;;;;;5068941;28;20196;-75
2020/12/01 07:13:07;;;;;;;23.15;13.18;;;6.70;99.90;;;;;;5053469;28;20185;-75
2020/12/01 07:15:42;;;;;;;21.25;14.00;;;6.70;99.90;;;;;;5053104;28;20281;-75
2020/12/01 07:18:27;;;;;;;24.35;13.57;;;6.70;99.90;;;;;;5052265;28;20187;-75
2020/12/01 07:21:13;;;;;;;27.23;13.70;;;6.70;99.90;;;;;;5052327;28;20244;-75
2020/12/01 07:24:07;;;;;;;23.02;14.18;;;6.80;99.90;;;;;;5068352;28;20661;-74
2020/12/01 07:27:05;;;;;;;18.90;13.18;;;6.80;99.90;;;;;;5052141;28;20188;-75
2020/12/01 07:29:40;;;;;;;21.30;13.20;;;6.80;99.90;;;;;;5051971;28;20203;-75
2020/12/01 07:32:18;;;;;;;24.98;13.48;;;6.80;99.90;;;;;;5051286;28;20196;-75
2020/12/01 07:34:45;;;;;;;24.08;14.30;;;6.80;99.90;;;;;;5051875;28;20231;-75
2020/12/01 07:37:14;;;;;;;22.95;13.10;;;6.80;99.90;;;;;;5051780;28;20216;-75
2020/12/01 07:39:53;;;;;;;21.33;12.98;;;6.80;99.90;;;;;;5068686;28;20172;-75
2020/12/01 07:42:26;;;;;;;24.17;12.60;;;6.80;99.90;;;;;;5052214;28;20196;-74
2020/12/01 07:45:11;;;;;;;31.05;12.95;;;6.80;99.90;;;;;;5051575;28;20207;-75
2020/12/01 07:47:37;;;;;;;22.10;11.55;;;6.90;99.90;;;;;;5068213;28;20267;-75
2020/12/01 07:50:12;;;;;;;17.17;11.40;;;6.90;99.90;;;;;;5052835;28;20204;-75
2020/12/01 07:52:42;;;;;;;20.85;12.52;;;6.90;99.90;;;;;;5051677;28;20683;-74
2020/12/01 07:55:35;;;;;;;22.70;12.32;;;6.90;99.90;;;;;;5067763;28;20219;-75
2020/12/01 07:58:06;;;;;;;20.35;11.90;;;7.00;99.90;;;;;;5050650;28;20180;-75
2020/12/01 08:00:34;;;;;;;19.50;10.88;;;7.00;99.90;;;;;;5051842;28;20199;-74
2020/12/01 08:03:12;;;;;;;22.83;14.23;;;7.00;99.90;;;;;;5052449;28;20168;-74
2020/12/01 08:05:39;;;;;;;33.35;16.58;;;7.00;99.90;;;;;;5034336;28;20505;-74
2020/12/01 08:08:05;;;;;;;27.48;16.70;;;7.00;99.90;;;;;;5067237;28;20185;-74
2020/12/01 08:10:32;;;;;;;28.95;16.30;;;7.00;99.90;;;;;;5052540;28;20719;-75
2020/12/01 08:13:05;;;;;;;30.98;16.30;;;7.00;99.90;;;;;;5051260;28;20222;-75
2020/12/01 08:15:32;;;;;;;22.20;14.10;;;7.10;99.90;;;;;;5051926;28;20566;-75
2020/12/01 08:18:03;;;;;;;23.73;13.35;;;7.10;99.90;;;;;;5049613;28;20180;-74
2020/12/01 08:20:29;;;;;;;19.75;11.60;;;7.10;99.90;;;;;;5067370;28;20195;-75
2020/12/01 08:23:23;;;;;;;28.85;11.55;;;7.20;99.90;;;;;;5051202;28;20193;-75
2020/12/01 08:26:11;;;;;;;25.15;11.60;;;7.20;99.90;;;;;;5027911;28;20567;-74
2020/12/01 08:28:41;;;;;;;26.30;12.63;;;7.30;99.90;;;;;;5050201;28;20212;-74
2020/12/01 08:31:28;;;;;;;29.55;11.30;;;7.30;99.90;;;;;;5051383;28;20180;-74
2020/12/01 08:34:04;;;;;;;20.70;10.00;;;7.30;99.90;;;;;;5052167;28;20565;-74
2020/12/01 08:36:55;;;;;;;20.77;11.93;;;7.30;99.90;;;;;;5116498;22;20234;-94
2020/12/01 08:39:58;;;;;;;18.80;9.25;;;7.40;99.90;;;;;;5095705;28;20568;-90
2020/12/01 08:42:24;;;;;;;26.13;9.40;;;7.40;99.90;;;;;;5061972;28;20191;-92
2020/12/01 08:45:09;;;;;;;20.02;10.10;;;7.50;99.90;;;;;;5095723;28;20206;-92
2020/12/01 08:47:35;;;;;;;19.85;10.05;;;7.50;99.90;;;;;;5075087;28;20191;-94
2020/12/01 08:50:12;;;;;;;27.63;9.90;;;7.60;99.90;;;;;;5058044;28;20232;-93
2020/12/01 08:52:42;;;;;;;18.85;9.40;;;7.60;99.90;;;;;;5075506;28;20271;-95
2020/12/01 08:55:20;;;;;;;24.80;10.70;;;7.60;99.90;;;;;;5083333;28;20542;-93
2020/12/01 08:57:54;;;;;;;19.42;9.65;;;7.60;99.90;;;;;;5078630;28;20203;-92
2020/12/01 09:00:23;;;;;;;24.63;11.00;;;7.70;99.90;;;;;;5095534;28;20240;-90
2020/12/01 09:02:52;;;;;;;23.63;9.88;;;7.80;99.90;;;;;;5095459;28;20210;-92
2020/12/01 09:05:33;;;;;;;21.20;10.63;;;7.80;99.90;;;;;;5108007;28;20186;-93
2020/12/01 09:13:59;;;;;;;19.48;10.73;;;7.90;99.90;;;;;;5115138;28;20687;-90
2020/12/01 09:21:59;;;;;;;25.00;10.25;;;8.00;99.90;;;;;;5082515;28;20611;-88
2020/12/01 09:24:29;;;;;;;19.40;10.45;;;8.00;99.90;;;;;;5074168;28;20203;-90
2020/12/01 09:27:12;;;;;;;20.63;9.77;;;8.10;99.90;;;;;;5085283;28;20188;-90
2020/12/01 09:29:43;;;;;;;16.25;9.50;;;8.10;99.90;;;;;;5061325;28;20186;-90
2020/12/01 09:32:19;;;;;;;26.35;10.40;;;8.10;99.90;;;;;;5077787;28;20591;-90
2020/12/01 09:34:45;;;;;;;27.02;10.73;;;8.20;99.90;;;;;;5094934;28;20216;-86
2020/12/01 09:37:12;;;;;;;18.75;10.30;;;8.20;99.90;;;;;;5077091;28;20680;-88
2020/12/01 09:39:41;;;;;;;25.95;10.32;;;8.20;99.90;;;;;;5094115;28;20183;-87
2020/12/01 09:42:16;;;;;;;17.77;10.00;;;8.30;99.90;;;;;;5059343;28;20206;-88
2020/12/01 09:47:18;;;;;;;19.30;9.70;;;8.30;99.90;;;;;;5095086;28;20202;-92
2020/12/01 09:49:44;;;;;;;24.63;9.48;;;8.30;99.90;;;;;;5075885;28;20507;-93
2020/12/01 09:52:23;;;;;;;18.07;9.37;;;8.20;99.90;;;;;;5075129;28;20635;-90
2020/12/01 09:55:45;;;;;;;21.13;9.32;;;8.30;99.90;;;;;;5074831;28;20398;-94
2020/12/01 10:08:21;;;;;;;17.73;9.70;;;8.50;99.90;;;;;;5081101;28;20179;-90
2020/12/01 10:11:03;;;;;;;13.00;8.95;;;8.50;99.90;;;;;;5098397;28;20179;-89
2020/12/01 10:14:28;;;;;;;13.80;9.03;;;8.50;99.90;;;;;;5081241;28;20183;-89
2020/12/01 10:19:51;;;;;;;10.32;8.60;;;8.50;99.90;;;;;;5060787;28;20168;-91
2020/12/01 10:32:41;;;;;;;8.23;6.65;;;8.30;99.90;;;;;;5077991;28;20486;-93
2020/12/01 10:35:21;;;;;;;11.23;7.20;;;8.30;99.90;;;;;;5077816;28;20218;-93
2020/12/01 10:37:41;;;;;;;8.50;6.93;;;8.30;99.90;;;;;;5077377;28;20478;-92
2020/12/01 10:40:10;;;;;;;10.47;7.27;;;8.30;99.90;;;;;;5078099;28;20457;-91
2020/12/01 10:42:36;;;;;;;10.30;7.30;;;8.20;99.90;;;;;;5077348;28;20434;-92
2020/12/01 10:45:03;;;;;;;8.50;6.55;;;8.20;99.90;;;;;;5084230;28;20433;-94
2020/12/01 10:47:32;;;;;;;9.83;7.27;;;8.20;99.90;;;;;;5078048;28;20245;-87
2020/12/01 10:50:03;;;;;;;7.78;6.97;;;8.20;99.90;;;;;;5077429;28;20962;-93
2020/12/01 10:52:29;;;;;;;8.27;7.13;;;8.30;99.90;;;;;;5063629;28;20213;-92
2020/12/01 10:55:00;;;;;;;9.70;6.68;;;8.40;99.90;;;;;;5086568;28;20520;-86
2020/12/01 10:57:27;;;;;;;10.07;7.22;;;8.30;99.90;;;;;;5077568;28;20188;-94
2020/12/01 10:59:53;;;;;;;13.40;7.67;;;8.30;99.90;;;;;;5077612;28;20492;-93
2020/12/01 11:02:19;;;;;;;10.63;7.40;;;8.30;99.90;;;;;;5047648;28;20983;-92
2020/12/01 11:04:45;;;;;;;11.50;7.60;;;8.30;99.90;;;;;;5047378;28;20439;-93
2020/12/01 11:07:11;;;;;;;11.10;8.10;;;8.30;99.90;;;;;;5079210;28;20729;-93
2020/12/01 11:09:37;;;;;;;10.33;8.40;;;8.30;99.90;;;;;;5078216;28;20426;-94
2020/12/01 11:12:03;;;;;;;15.63;8.93;;;8.30;99.90;;;;;;5060389;28;20442;-93
2020/12/01 11:14:33;;;;;;;11.30;8.80;;;8.40;99.90;;;;;;5059413;28;20535;-88
2020/12/01 11:17:01;;;;;;;11.73;9.30;;;8.40;99.90;;;;;;5095056;28;20496;-88
2020/12/01 11:19:27;;;;;;;13.47;9.90;;;8.50;99.90;;;;;;5078866;28;20425;-89
2020/12/01 11:21:53;;;;;;;16.40;10.53;;;8.60;99.90;;;;;;5096440;28;20420;-88
2020/12/01 11:24:19;;;;;;;12.43;10.63;;;8.50;99.90;;;;;;5042051;28;20516;-88
2020/12/01 11:26:45;;;;;;;15.53;11.67;;;8.60;99.90;;;;;;5076236;28;20510;-89
2020/12/01 11:29:11;;;;;;;15.97;11.57;;;8.60;99.90;;;;;;5110552;28;20440;-88
2020/12/01 11:31:41;;;;;;;17.10;10.57;;;8.60;99.90;;;;;;5116687;28;20481;-89
2020/12/01 11:34:12;;;;;;;15.27;11.63;;;8.60;99.90;;;;;;5116837;28;20453;-89
2020/12/01 11:36:41;;;;;;;19.70;12.30;;;8.70;99.90;;;;;;5107778;28;20515;-89
2020/12/01 11:39:11;;;;;;;14.50;11.30;;;8.70;99.90;;;;;;5095971;28;20422;-89
2020/12/01 11:41:43;;;;;;;14.30;10.07;;;8.80;99.90;;;;;;5076242;28;20422;-89
2020/12/01 11:44:12;;;;;;;16.40;11.13;;;8.80;99.90;;;;;;5060903;28;20520;-90
2020/12/01 11:46:41;;;;;;;14.97;11.53;;;8.80;99.90;;;;;;5108727;28;20436;-88
2020/12/01 11:49:10;;;;;;;17.40;12.00;;;8.70;99.90;;;;;;5093855;28;20501;-90
2020/12/01 11:51:39;;;;;;;14.27;11.27;;;8.70;99.90;;;;;;5064273;28;20836;-89
2020/12/01 11:54:10;;;;;;;15.23;10.87;;;8.70;99.90;;;;;;5063180;28;20418;-89
2020/12/01 11:56:38;;;;;;;15.87;10.90;;;8.80;99.90;;;;;;5096273;28;20456;-89
2020/12/01 11:59:05;;;;;;;14.57;11.20;;;8.80;99.90;;;;;;5098816;28;20468;-89
2020/12/01 12:01:32;;;;;;;16.77;11.70;;;8.80;99.90;;;;;;5116531;28;20799;-89
2020/12/01 12:04:10;;;;;;;15.03;11.90;;;8.90;99.90;;;;;;5058370;28;20442;-89
2020/12/01 12:06:40;;;;;;;16.57;12.43;;;8.90;99.90;;;;;;5058485;28;20436;-89
2020/12/01 12:09:08;;;;;;;15.13;10.53;;;8.90;99.90;;;;;;5058461;28;20958;-94
2020/12/01 12:11:35;;;;;;;20.53;11.93;;;8.90;99.90;;;;;;5094063;28;20437;-93
2020/12/01 12:14:02;;;;;;;16.70;11.40;;;8.90;99.90;;;;;;5080341;28;20432;-93
2020/12/01 12:16:31;;;;;;;18.63;12.07;;;8.90;99.90;;;;;;5097824;28;20497;-91
2020/12/01 12:18:58;;;;;;;14.67;9.17;;;8.90;99.90;;;;;;5097671;28;20425;-90
2020/12/01 12:21:24;;;;;;;13.88;7.97;;;8.90;99.90;;;;;;5079408;28;20458;-92
2020/12/01 12:23:50;;;;;;;11.67;7.43;;;8.90;99.90;;;;;;5076136;28;20258;-92
2020/12/01 12:26:17;;;;;;;10.27;6.70;;;8.90;99.90;;;;;;5099498;28;20811;-86
2020/12/01 12:28:46;;;;;;;9.20;5.37;;;8.90;99.90;;;;;;5115787;28;20441;-86
2020/12/01 12:31:16;;;;;;;8.88;4.90;;;8.90;99.90;;;;;;5115027;28;20448;-85
2020/12/01 12:33:42;;;;;;;10.03;4.60;;;8.80;99.90;;;;;;5076699;28;20619;-85
2020/12/01 12:36:14;;;;;;;9.20;4.17;;;8.80;99.90;;;;;;5095699;28;20485;-94
2020/12/01 12:38:40;;;;;;;13.00;4.90;;;8.70;99.90;;;;;;5044404;28;20456;-87
2020/12/01 12:41:06;;;;;;;12.47;5.27;;;8.70;99.90;;;;;;5081339;28;20438;-93
2020/12/01 12:43:35;;;;;;;9.97;6.27;;;8.80;99.90;;;;;;5075741;28;20944;-94
2020/12/01 12:46:06;;;;;;;15.60;6.70;;;8.80;99.90;;;;;;5063543;28;20429;-92
2020/12/01 12:48:37;;;;;;;13.40;6.70;;;8.70;99.90;;;;;;5077378;28;20433;-87
2020/12/01 12:51:03;;;;;;;11.47;7.50;;;8.70;99.90;;;;;;5095568;28;20912;-91
2020/12/01 12:53:33;;;;;;;12.20;7.63;;;8.60;99.90;;;;;;5058642;28;20490;-93
2020/12/01 12:56:02;;;;;;;16.55;7.95;;;8.60;99.90;;;;;;5058917;28;20528;-92
2020/12/01 12:58:30;;;;;;;18.43;8.10;;;8.60;99.90;;;;;;5093370;28;20236;-94
2020/12/01 13:01:04;;;;;;;15.10;8.77;;;8.60;99.90;;;;;;5095664;28;20406;-93
2020/12/01 13:03:33;;;;;;;17.23;9.60;;;8.70;99.90;;;;;;5075631;28;20422;-82
2020/12/01 13:06:01;;;;;;;18.25;9.25;;;8.70;99.90;;;;;;5066463;28;20438;-84
2020/12/01 13:08:31;;;;;;;19.83;9.90;;;8.70;99.90;;;;;;5085112;28;20176;-88
2020/12/01 13:10:57;;;;;;;23.07;10.40;;;8.70;99.90;;;;;;5056612;28;20418;-84
2020/12/01 13:13:25;;;;;;;19.73;10.80;;;8.70;99.90;;;;;;5057359;28;20426;-92
2020/12/01 13:15:54;;;;;;;21.27;10.50;;;8.70;99.90;;;;;;5074903;28;20524;-93
2020/12/01 13:18:20;;;;;;;20.00;11.23;;;8.70;99.90;;;;;;5057550;28;20190;-88
2020/12/01 13:20:48;;;;;;;20.23;9.33;;;8.70;99.90;;;;;;5042613;28;20427;-89
2020/12/01 13:23:14;;;;;;;19.10;11.03;;;8.80;99.90;;;;;;5077205;28;20418;-89
2020/12/01 13:25:40;;;;;;;16.40;9.60;;;8.80;99.90;;;;;;5095074;28;20439;-89
2020/12/01 13:28:06;;;;;;;20.23;9.90;;;8.80;99.90;;;;;;5078041;28;20515;-94
2020/12/01 13:30:32;;;;;;;19.58;9.77;;;8.80;99.90;;;;;;5094577;28;20440;-86
2020/12/01 13:32:58;;;;;;;14.73;8.30;;;8.80;99.90;;;;;;5077545;28;20179;-89
2020/12/01 13:35:24;;;;;;;17.10;9.67;;;8.80;99.90;;;;;;5064545;28;20456;-90
2020/12/01 13:37:52;;;;;;;19.17;9.50;;;8.70;99.90;;;;;;5048568;28;20467;-90
2020/12/01 13:40:21;;;;;;;18.07;9.00;;;8.70;99.90;;;;;;5064978;28;20482;-90
2020/12/01 13:42:47;;;;;;;15.63;8.63;;;8.70;99.90;;;;;;5065297;28;20869;-89
2020/12/01 13:45:16;;;;;;;13.03;8.33;;;8.70;99.90;;;;;;5080809;28;20448;-87
2020/12/01 13:47:50;;;;;;;12.70;8.60;;;8.70;99.90;;;;;;5064967;28;20982;-93
2020/12/01 13:50:21;;;;;;;22.30;9.60;;;8.70;99.90;;;;;;5086770;28;20491;-91